sensor_id;sensor_type;location;lat;lon;timestamp;P1;durP1;ratioP1;P2;durP2;ratioP2
11338;SDS011;5724;42.684;23.252;2023-02-21T00:01:51;1.13;;;1.13;;
11338;SDS011;5724;42.684;23.252;2023-02-21T00:04:35;1.23;;;1.10;;
11338;SDS011;5724;42.684;23.252;2023-02-21T00:07:19;1.20;;;1.20;;
11338;SDS011;5724;42.684;23.252;2023-02-21T00:10:04;1.10;;;1.10;;
11338;SDS011;5724;42.684;23.252;2023-02-21T00:12:48;1.20;;;1.20;;
11338;SDS011;5724;42.684;23.252;2023-02-21T00:15:33;1.40;;;1.40;;
11338;SDS011;5724;42.684;23.252;2023-02-21T00:18:17;1.53;;;1.40;;
11338;SDS011;5724;42.684;23.252;2023-02-21T00:21:01;1.57;;;1.47;;
11338;SDS011;5724;42.684;23.252;2023-02-21T00:23:45;1.00;;;1.00;;
11338;SDS011;5724;42.684;23.252;2023-02-21T00:26:29;1.53;;;1.50;;
11338;SDS011;5724;42.684;23.252;2023-02-21T00:29:13;1.03;;;1.03;;
11338;SDS011;5724;42.684;23.252;2023-02-21T00:31:57;1.33;;;1.23;;
11338;SDS011;5724;42.684;23.252;2023-02-21T00:34:42;1.20;;;1.20;;
11338;SDS011;5724;42.684;23.252;2023-02-21T00:37:26;2.47;;;1.20;;
11338;SDS011;5724;42.684;23.252;2023-02-21T00:40:12;1.30;;;1.20;;
11338;SDS011;5724;42.684;23.252;2023-02-21T00:42:57;1.20;;;1.20;;
11338;SDS011;5724;42.684;23.252;2023-02-21T00:45:41;1.00;;;1.00;;
11338;SDS011;5724;42.684;23.252;2023-02-21T00:48:25;1.20;;;1.20;;
11338;SDS011;5724;42.684;23.252;2023-02-21T00:51:10;1.30;;;1.30;;
11338;SDS011;5724;42.684;23.252;2023-02-21T00:53:54;1.38;;;1.30;;
11338;SDS011;5724;42.684;23.252;2023-02-21T00:56:38;1.30;;;1.30;;
11338;SDS011;5724;42.684;23.252;2023-02-21T00:59:23;1.20;;;1.20;;
11338;SDS011;5724;42.684;23.252;2023-02-21T01:02:07;1.27;;;1.27;;
11338;SDS011;5724;42.684;23.252;2023-02-21T01:04:51;1.17;;;1.17;;
11338;SDS011;5724;42.684;23.252;2023-02-21T01:07:36;1.50;;;1.50;;
11338;SDS011;5724;42.684;23.252;2023-02-21T01:10:20;1.80;;;1.70;;
11338;SDS011;5724;42.684;23.252;2023-02-21T01:13:04;1.50;;;1.40;;
11338;SDS011;5724;42.684;23.252;2023-02-21T01:15:49;1.47;;;1.37;;
11338;SDS011;5724;42.684;23.252;2023-02-21T01:18:33;1.50;;;1.40;;
11338;SDS011;5724;42.684;23.252;2023-02-21T01:21:17;1.63;;;1.53;;
11338;SDS011;5724;42.684;23.252;2023-02-21T01:24:02;1.10;;;1.10;;
11338;SDS011;5724;42.684;23.252;2023-02-21T01:26:48;1.87;;;1.77;;
11338;SDS011;5724;42.684;23.252;2023-02-21T01:29:32;1.60;;;1.50;;
11338;SDS011;5724;42.684;23.252;2023-02-21T01:32:16;1.90;;;1.80;;
11338;SDS011;5724;42.684;23.252;2023-02-21T01:35:01;2.13;;;2.00;;
11338;SDS011;5724;42.684;23.252;2023-02-21T01:37:45;2.77;;;2.57;;
11338;SDS011;5724;42.684;23.252;2023-02-21T01:40:29;4.07;;;3.20;;
11338;SDS011;5724;42.684;23.252;2023-02-21T01:43:17;4.07;;;3.53;;
11338;SDS011;5724;42.684;23.252;2023-02-21T01:46:07;4.50;;;3.77;;
11338;SDS011;5724;42.684;23.252;2023-02-21T01:48:54;4.23;;;3.13;;
11338;SDS011;5724;42.684;23.252;2023-02-21T01:51:41;5.00;;;3.10;;
11338;SDS011;5724;42.684;23.252;2023-02-21T01:54:28;1.80;;;1.70;;
11338;SDS011;5724;42.684;23.252;2023-02-21T01:57:15;2.60;;;2.40;;
11338;SDS011;5724;42.684;23.252;2023-02-21T02:00:00;3.40;;;3.10;;
11338;SDS011;5724;42.684;23.252;2023-02-21T02:05:45;4.60;;;3.57;;
11338;SDS011;5724;42.684;23.252;2023-02-21T02:08:32;4.43;;;3.97;;
11338;SDS011;5724;42.684;23.252;2023-02-21T02:14:35;4.43;;;4.10;;
11338;SDS011;5724;42.684;23.252;2023-02-21T02:22:59;4.93;;;4.47;;
11338;SDS011;5724;42.684;23.252;2023-02-21T02:25:55;4.97;;;4.57;;
11338;SDS011;5724;42.684;23.252;2023-02-21T02:36:46;4.10;;;3.70;;
11338;SDS011;5724;42.684;23.252;2023-02-21T02:41:54;4.73;;;4.23;;
11338;SDS011;5724;42.684;23.252;2023-02-21T02:44:27;4.43;;;3.93;;
11338;SDS011;5724;42.684;23.252;2023-02-21T02:47:01;3.97;;;3.67;;
11338;SDS011;5724;42.684;23.252;2023-02-21T02:49:32;5.33;;;4.83;;
11338;SDS011;5724;42.684;23.252;2023-02-21T02:52:06;4.67;;;4.07;;
11338;SDS011;5724;42.684;23.252;2023-02-21T02:54:32;4.30;;;3.90;;
11338;SDS011;5724;42.684;23.252;2023-02-21T02:56:58;4.43;;;4.10;;
11338;SDS011;5724;42.684;23.252;2023-02-21T02:59:27;5.67;;;3.93;;
11338;SDS011;5724;42.684;23.252;2023-02-21T03:05:12;3.90;;;3.53;;
11338;SDS011;5724;42.684;23.252;2023-02-21T03:08:01;7.27;;;4.17;;
11338;SDS011;5724;42.684;23.252;2023-02-21T03:18:48;3.33;;;3.07;;
11338;SDS011;5724;42.684;23.252;2023-02-21T03:21:44;3.90;;;2.90;;
11338;SDS011;5724;42.684;23.252;2023-02-21T03:24:14;6.10;;;3.40;;
11338;SDS011;5724;42.684;23.252;2023-02-21T03:26:42;3.97;;;3.57;;
11338;SDS011;5724;42.684;23.252;2023-02-21T03:29:10;5.53;;;3.83;;
11338;SDS011;5724;42.684;23.252;2023-02-21T03:31:40;4.13;;;3.70;;
11338;SDS011;5724;42.684;23.252;2023-02-21T03:34:10;4.20;;;3.90;;
11338;SDS011;5724;42.684;23.252;2023-02-21T03:36:36;3.03;;;2.73;;
11338;SDS011;5724;42.684;23.252;2023-02-21T03:39:02;2.20;;;2.10;;
11338;SDS011;5724;42.684;23.252;2023-02-21T03:41:28;2.10;;;1.90;;
11338;SDS011;5724;42.684;23.252;2023-02-21T03:43:54;2.17;;;1.97;;
11338;SDS011;5724;42.684;23.252;2023-02-21T03:46:19;1.67;;;1.57;;
11338;SDS011;5724;42.684;23.252;2023-02-21T03:48:44;1.40;;;1.40;;
11338;SDS011;5724;42.684;23.252;2023-02-21T03:51:10;1.80;;;1.70;;
11338;SDS011;5724;42.684;23.252;2023-02-21T03:53:35;1.90;;;1.80;;
11338;SDS011;5724;42.684;23.252;2023-02-21T03:56:01;1.90;;;1.80;;
11338;SDS011;5724;42.684;23.252;2023-02-21T03:58:27;1.53;;;1.43;;
11338;SDS011;5724;42.684;23.252;2023-02-21T04:00:52;1.67;;;1.57;;
11338;SDS011;5724;42.684;23.252;2023-02-21T04:03:18;1.63;;;1.53;;
11338;SDS011;5724;42.684;23.252;2023-02-21T04:05:43;2.20;;;2.00;;
11338;SDS011;5724;42.684;23.252;2023-02-21T04:08:09;2.30;;;2.20;;
11338;SDS011;5724;42.684;23.252;2023-02-21T04:10:34;1.70;;;1.60;;
11338;SDS011;5724;42.684;23.252;2023-02-21T04:13:00;1.97;;;1.87;;
11338;SDS011;5724;42.684;23.252;2023-02-21T04:15:25;1.60;;;1.50;;
11338;SDS011;5724;42.684;23.252;2023-02-21T04:17:51;1.97;;;1.77;;
11338;SDS011;5724;42.684;23.252;2023-02-21T04:20:16;3.57;;;2.63;;
11338;SDS011;5724;42.684;23.252;2023-02-21T04:22:42;4.07;;;3.27;;
11338;SDS011;5724;42.684;23.252;2023-02-21T04:25:08;3.77;;;2.50;;
11338;SDS011;5724;42.684;23.252;2023-02-21T04:27:33;3.70;;;3.23;;
11338;SDS011;5724;42.684;23.252;2023-02-21T04:29:59;4.43;;;3.90;;
11338;SDS011;5724;42.684;23.252;2023-02-21T04:32:25;3.90;;;3.47;;
11338;SDS011;5724;42.684;23.252;2023-02-21T04:34:51;4.13;;;3.73;;
11338;SDS011;5724;42.684;23.252;2023-02-21T04:37:16;4.20;;;3.90;;
11338;SDS011;5724;42.684;23.252;2023-02-21T04:39:42;5.30;;;4.27;;
11338;SDS011;5724;42.684;23.252;2023-02-21T04:42:07;4.57;;;3.87;;
11338;SDS011;5724;42.684;23.252;2023-02-21T04:44:33;5.40;;;4.20;;
11338;SDS011;5724;42.684;23.252;2023-02-21T04:46:59;5.67;;;4.53;;
11338;SDS011;5724;42.684;23.252;2023-02-21T04:49:24;9.97;;;4.47;;
11338;SDS011;5724;42.684;23.252;2023-02-21T04:51:52;5.07;;;4.40;;
11338;SDS011;5724;42.684;23.252;2023-02-21T04:54:18;7.47;;;5.53;;
11338;SDS011;5724;42.684;23.252;2023-02-21T04:56:43;6.13;;;4.00;;
11338;SDS011;5724;42.684;23.252;2023-02-21T04:59:09;5.10;;;3.97;;
11338;SDS011;5724;42.684;23.252;2023-02-21T05:01:34;5.10;;;3.50;;
11338;SDS011;5724;42.684;23.252;2023-02-21T05:04:00;4.27;;;3.80;;
11338;SDS011;5724;42.684;23.252;2023-02-21T05:06:26;3.57;;;3.33;;
11338;SDS011;5724;42.684;23.252;2023-02-21T05:08:53;6.27;;;5.17;;
11338;SDS011;5724;42.684;23.252;2023-02-21T05:11:19;4.77;;;4.23;;
11338;SDS011;5724;42.684;23.252;2023-02-21T05:13:46;2.67;;;2.20;;
11338;SDS011;5724;42.684;23.252;2023-02-21T05:16:12;3.10;;;2.20;;
11338;SDS011;5724;42.684;23.252;2023-02-21T05:18:40;2.10;;;1.90;;
11338;SDS011;5724;42.684;23.252;2023-02-21T05:21:06;2.10;;;1.90;;
11338;SDS011;5724;42.684;23.252;2023-02-21T05:23:33;2.83;;;2.10;;
11338;SDS011;5724;42.684;23.252;2023-02-21T05:26:00;2.30;;;2.10;;
11338;SDS011;5724;42.684;23.252;2023-02-21T05:28:26;2.20;;;2.10;;
11338;SDS011;5724;42.684;23.252;2023-02-21T05:30:52;1.83;;;1.73;;
11338;SDS011;5724;42.684;23.252;2023-02-21T05:33:17;3.20;;;2.33;;
11338;SDS011;5724;42.684;23.252;2023-02-21T05:35:43;2.30;;;2.10;;
11338;SDS011;5724;42.684;23.252;2023-02-21T05:38:10;3.10;;;2.10;;
11338;SDS011;5724;42.684;23.252;2023-02-21T05:40:36;2.60;;;2.40;;
11338;SDS011;5724;42.684;23.252;2023-02-21T05:43:01;2.10;;;2.00;;
11338;SDS011;5724;42.684;23.252;2023-02-21T05:45:27;2.20;;;2.10;;
11338;SDS011;5724;42.684;23.252;2023-02-21T05:47:52;3.13;;;2.93;;
11338;SDS011;5724;42.684;23.252;2023-02-21T05:50:22;2.85;;;2.42;;
11338;SDS011;5724;42.684;23.252;2023-02-21T05:52:48;7.40;;;6.60;;
11338;SDS011;5724;42.684;23.252;2023-02-21T05:55:13;6.90;;;6.27;;
11338;SDS011;5724;42.684;23.252;2023-02-21T05:57:39;6.80;;;6.17;;
11338;SDS011;5724;42.684;23.252;2023-02-21T06:00:04;18.30;;;8.10;;
11338;SDS011;5724;42.684;23.252;2023-02-21T06:02:30;12.77;;;7.33;;
11338;SDS011;5724;42.684;23.252;2023-02-21T06:04:56;13.00;;;7.13;;
11338;SDS011;5724;42.684;23.252;2023-02-21T06:07:21;16.90;;;8.23;;
11338;SDS011;5724;42.684;23.252;2023-02-21T06:09:47;15.53;;;8.20;;
11338;SDS011;5724;42.684;23.252;2023-02-21T06:12:12;11.37;;;7.07;;
11338;SDS011;5724;42.684;23.252;2023-02-21T06:14:38;16.23;;;7.40;;
11338;SDS011;5724;42.684;23.252;2023-02-21T06:17:03;11.20;;;9.00;;
11338;SDS011;5724;42.684;23.252;2023-02-21T06:19:28;16.93;;;9.00;;
11338;SDS011;5724;42.684;23.252;2023-02-21T06:21:54;17.80;;;11.40;;
11338;SDS011;5724;42.684;23.252;2023-02-21T06:24:19;22.47;;;11.73;;
11338;SDS011;5724;42.684;23.252;2023-02-21T06:26:45;13.47;;;10.60;;
11338;SDS011;5724;42.684;23.252;2023-02-21T06:29:11;15.17;;;10.73;;
11338;SDS011;5724;42.684;23.252;2023-02-21T06:31:36;11.77;;;9.23;;
11338;SDS011;5724;42.684;23.252;2023-02-21T06:34:02;11.53;;;9.23;;
11338;SDS011;5724;42.684;23.252;2023-02-21T06:36:28;18.77;;;11.53;;
11338;SDS011;5724;42.684;23.252;2023-02-21T06:38:54;13.40;;;10.67;;
11338;SDS011;5724;42.684;23.252;2023-02-21T06:41:23;14.10;;;9.53;;
11338;SDS011;5724;42.684;23.252;2023-02-21T06:43:50;15.60;;;8.47;;
11338;SDS011;5724;42.684;23.252;2023-02-21T06:46:21;10.67;;;8.80;;
11338;SDS011;5724;42.684;23.252;2023-02-21T06:48:48;11.13;;;8.10;;
11338;SDS011;5724;42.684;23.252;2023-02-21T06:51:14;11.63;;;8.60;;
11338;SDS011;5724;42.684;23.252;2023-02-21T06:53:40;9.83;;;7.47;;
11338;SDS011;5724;42.684;23.252;2023-02-21T06:56:07;13.47;;;8.23;;
11338;SDS011;5724;42.684;23.252;2023-02-21T06:58:33;12.67;;;7.03;;
11338;SDS011;5724;42.684;23.252;2023-02-21T07:00:58;20.40;;;9.60;;
11338;SDS011;5724;42.684;23.252;2023-02-21T07:03:24;12.90;;;7.63;;
11338;SDS011;5724;42.684;23.252;2023-02-21T07:05:50;16.00;;;8.10;;
11338;SDS011;5724;42.684;23.252;2023-02-21T07:08:15;14.30;;;7.77;;
11338;SDS011;5724;42.684;23.252;2023-02-21T07:10:41;12.40;;;7.77;;
11338;SDS011;5724;42.684;23.252;2023-02-21T07:13:06;16.27;;;8.63;;
11338;SDS011;5724;42.684;23.252;2023-02-21T07:15:32;19.83;;;9.75;;
11338;SDS011;5724;42.684;23.252;2023-02-21T07:17:57;22.77;;;12.43;;
11338;SDS011;5724;42.684;23.252;2023-02-21T07:20:23;16.33;;;9.85;;
11338;SDS011;5724;42.684;23.252;2023-02-21T07:22:48;15.53;;;10.23;;
11338;SDS011;5724;42.684;23.252;2023-02-21T07:25:14;16.27;;;10.07;;
11338;SDS011;5724;42.684;23.252;2023-02-21T07:27:41;17.03;;;10.00;;
11338;SDS011;5724;42.684;23.252;2023-02-21T07:30:08;26.17;;;10.88;;
11338;SDS011;5724;42.684;23.252;2023-02-21T07:32:34;21.23;;;10.73;;
11338;SDS011;5724;42.684;23.252;2023-02-21T07:35:00;18.02;;;11.05;;
11338;SDS011;5724;42.684;23.252;2023-02-21T07:37:25;25.38;;;13.32;;
11338;SDS011;5724;42.684;23.252;2023-02-21T07:39:51;34.17;;;16.92;;
11338;SDS011;5724;42.684;23.252;2023-02-21T07:42:17;10.20;;;7.43;;
11338;SDS011;5724;42.684;23.252;2023-02-21T07:44:43;2.90;;;2.53;;
11338;SDS011;5724;42.684;23.252;2023-02-21T07:47:08;2.65;;;2.55;;
11338;SDS011;5724;42.684;23.252;2023-02-21T07:49:38;3.33;;;2.70;;
11338;SDS011;5724;42.684;23.252;2023-02-21T07:52:05;2.10;;;1.90;;
11338;SDS011;5724;42.684;23.252;2023-02-21T07:54:31;1.90;;;1.80;;
11338;SDS011;5724;42.684;23.252;2023-02-21T07:56:56;2.22;;;2.10;;
11338;SDS011;5724;42.684;23.252;2023-02-21T07:59:22;2.08;;;1.98;;
11338;SDS011;5724;42.684;23.252;2023-02-21T08:01:48;4.07;;;1.90;;
11338;SDS011;5724;42.684;23.252;2023-02-21T08:04:13;2.28;;;2.05;;
11338;SDS011;5724;42.684;23.252;2023-02-21T08:06:39;3.00;;;2.40;;
11338;SDS011;5724;42.684;23.252;2023-02-21T08:09:05;1.85;;;1.52;;
11338;SDS011;5724;42.684;23.252;2023-02-21T08:11:31;2.60;;;2.28;;
11338;SDS011;5724;42.684;23.252;2023-02-21T08:13:58;2.03;;;1.92;;
11338;SDS011;5724;42.684;23.252;2023-02-21T08:16:23;2.13;;;2.03;;
11338;SDS011;5724;42.684;23.252;2023-02-21T08:18:49;2.20;;;2.10;;
11338;SDS011;5724;42.684;23.252;2023-02-21T08:21:14;2.38;;;2.10;;
11338;SDS011;5724;42.684;23.252;2023-02-21T08:23:40;2.10;;;2.00;;
11338;SDS011;5724;42.684;23.252;2023-02-21T08:26:06;2.40;;;2.30;;
11338;SDS011;5724;42.684;23.252;2023-02-21T08:28:31;1.85;;;1.75;;
11338;SDS011;5724;42.684;23.252;2023-02-21T08:30:57;3.95;;;2.20;;
11338;SDS011;5724;42.684;23.252;2023-02-21T08:33:22;2.10;;;1.95;;
11338;SDS011;5724;42.684;23.252;2023-02-21T08:35:48;2.15;;;2.05;;
11338;SDS011;5724;42.684;23.252;2023-02-21T08:38:14;8.75;;;2.38;;
11338;SDS011;5724;42.684;23.252;2023-02-21T08:40:42;1.50;;;1.50;;
11338;SDS011;5724;42.684;23.252;2023-02-21T08:43:07;2.13;;;1.92;;
11338;SDS011;5724;42.684;23.252;2023-02-21T08:45:33;4.47;;;1.80;;
11338;SDS011;5724;42.684;23.252;2023-02-21T08:47:58;1.70;;;1.60;;
11338;SDS011;5724;42.684;23.252;2023-02-21T08:50:25;2.65;;;2.00;;
11338;SDS011;5724;42.684;23.252;2023-02-21T08:52:52;2.30;;;2.20;;
11338;SDS011;5724;42.684;23.252;2023-02-21T08:55:18;2.33;;;2.13;;
11338;SDS011;5724;42.684;23.252;2023-02-21T08:57:48;2.88;;;2.38;;
11338;SDS011;5724;42.684;23.252;2023-02-21T09:00:17;2.90;;;1.90;;
11338;SDS011;5724;42.684;23.252;2023-02-21T09:02:43;3.05;;;2.00;;
11338;SDS011;5724;42.684;23.252;2023-02-21T09:05:11;1.77;;;1.67;;
11338;SDS011;5724;42.684;23.252;2023-02-21T09:07:38;3.90;;;2.90;;
11338;SDS011;5724;42.684;23.252;2023-02-21T09:10:04;5.10;;;2.55;;
11338;SDS011;5724;42.684;23.252;2023-02-21T09:12:31;12.55;;;7.82;;
11338;SDS011;5724;42.684;23.252;2023-02-21T09:14:56;19.63;;;8.23;;
11338;SDS011;5724;42.684;23.252;2023-02-21T09:17:22;13.88;;;7.88;;
11338;SDS011;5724;42.684;23.252;2023-02-21T09:19:47;12.82;;;6.85;;
11338;SDS011;5724;42.684;23.252;2023-02-21T09:22:13;9.23;;;6.30;;
11338;SDS011;5724;42.684;23.252;2023-02-21T09:24:40;14.02;;;6.88;;
11338;SDS011;5724;42.684;23.252;2023-02-21T09:27:05;15.05;;;7.13;;
11338;SDS011;5724;42.684;23.252;2023-02-21T09:29:31;11.40;;;6.50;;
11338;SDS011;5724;42.684;23.252;2023-02-21T09:31:59;15.25;;;6.50;;
11338;SDS011;5724;42.684;23.252;2023-02-21T09:34:25;16.38;;;6.70;;
11338;SDS011;5724;42.684;23.252;2023-02-21T09:36:51;13.27;;;6.05;;
11338;SDS011;5724;42.684;23.252;2023-02-21T09:39:17;14.20;;;6.13;;
11338;SDS011;5724;42.684;23.252;2023-02-21T09:41:43;13.77;;;6.20;;
11338;SDS011;5724;42.684;23.252;2023-02-21T09:44:11;10.57;;;5.40;;
11338;SDS011;5724;42.684;23.252;2023-02-21T09:49:11;17.27;;;6.93;;
11338;SDS011;5724;42.684;23.252;2023-02-21T09:51:41;11.20;;;6.32;;
11338;SDS011;5724;42.684;23.252;2023-02-21T09:56:56;6.43;;;4.82;;
11338;SDS011;5724;42.684;23.252;2023-02-21T09:59:24;3.38;;;1.90;;
11338;SDS011;5724;42.684;23.252;2023-02-21T10:10:24;1.52;;;1.23;;
11338;SDS011;5724;42.684;23.252;2023-02-21T10:13:09;1.48;;;1.33;;
11338;SDS011;5724;42.684;23.252;2023-02-21T10:15:49;2.10;;;1.10;;
11338;SDS011;5724;42.684;23.252;2023-02-21T10:18:26;1.17;;;1.15;;
11338;SDS011;5724;42.684;23.252;2023-02-21T10:21:20;2.15;;;1.30;;
11338;SDS011;5724;42.684;23.252;2023-02-21T10:23:50;1.10;;;1.10;;
11338;SDS011;5724;42.684;23.252;2023-02-21T10:26:19;1.52;;;1.40;;
11338;SDS011;5724;42.684;23.252;2023-02-21T10:28:49;0.98;;;0.93;;
11338;SDS011;5724;42.684;23.252;2023-02-21T10:31:30;2.83;;;0.93;;
11338;SDS011;5724;42.684;23.252;2023-02-21T10:33:59;1.27;;;1.10;;
11338;SDS011;5724;42.684;23.252;2023-02-21T10:36:25;1.48;;;1.38;;
11338;SDS011;5724;42.684;23.252;2023-02-21T10:41:20;1.20;;;1.20;;
11338;SDS011;5724;42.684;23.252;2023-02-21T10:43:47;1.30;;;1.30;;
11338;SDS011;5724;42.684;23.252;2023-02-21T10:46:30;3.42;;;1.30;;
11338;SDS011;5724;42.684;23.252;2023-02-21T10:49:21;1.60;;;1.50;;
11338;SDS011;5724;42.684;23.252;2023-02-21T10:52:04;1.70;;;1.60;;
11338;SDS011;5724;42.684;23.252;2023-02-21T10:54:34;1.48;;;1.38;;
11338;SDS011;5724;42.684;23.252;2023-02-21T10:56:59;1.40;;;1.30;;
11338;SDS011;5724;42.684;23.252;2023-02-21T10:59:29;1.30;;;1.20;;
11338;SDS011;5724;42.684;23.252;2023-02-21T11:01:57;1.00;;;1.00;;
11338;SDS011;5724;42.684;23.252;2023-02-21T11:04:25;1.45;;;1.27;;
11338;SDS011;5724;42.684;23.252;2023-02-21T11:07:03;1.45;;;1.35;;
11338;SDS011;5724;42.684;23.252;2023-02-21T11:09:34;1.70;;;1.00;;
11338;SDS011;5724;42.684;23.252;2023-02-21T11:14:31;1.00;;;1.00;;
11338;SDS011;5724;42.684;23.252;2023-02-21T11:17:05;1.45;;;1.45;;
11338;SDS011;5724;42.684;23.252;2023-02-21T11:19:41;1.20;;;1.10;;
11338;SDS011;5724;42.684;23.252;2023-02-21T11:22:13;1.25;;;1.25;;
11338;SDS011;5724;42.684;23.252;2023-02-21T11:27:57;1.27;;;1.27;;
11338;SDS011;5724;42.684;23.252;2023-02-21T11:30:28;0.85;;;0.85;;
11338;SDS011;5724;42.684;23.252;2023-02-21T11:32:57;1.10;;;1.10;;
11338;SDS011;5724;42.684;23.252;2023-02-21T11:35:29;1.23;;;1.00;;
11338;SDS011;5724;42.684;23.252;2023-02-21T11:37:59;1.20;;;1.10;;
11338;SDS011;5724;42.684;23.252;2023-02-21T11:40:49;0.98;;;0.98;;
11338;SDS011;5724;42.684;23.252;2023-02-21T11:45:49;1.40;;;1.30;;
11338;SDS011;5724;42.684;23.252;2023-02-21T11:48:19;0.90;;;0.90;;
11338;SDS011;5724;42.684;23.252;2023-02-21T11:50:55;1.88;;;1.10;;
11338;SDS011;5724;42.684;23.252;2023-02-21T11:53:29;1.58;;;1.52;;
11338;SDS011;5724;42.684;23.252;2023-02-21T11:59:13;1.40;;;1.30;;
11338;SDS011;5724;42.684;23.252;2023-02-21T12:04:59;2.13;;;1.25;;
11338;SDS011;5724;42.684;23.252;2023-02-21T12:07:43;1.38;;;1.27;;
11338;SDS011;5724;42.684;23.252;2023-02-21T12:13:14;1.10;;;1.02;;
11338;SDS011;5724;42.684;23.252;2023-02-21T12:15:52;2.67;;;1.20;;
11338;SDS011;5724;42.684;23.252;2023-02-21T12:32:50;1.48;;;1.10;;
11338;SDS011;5724;42.684;23.252;2023-02-21T12:35:30;2.38;;;1.50;;
11338;SDS011;5724;42.684;23.252;2023-02-21T12:38:22;1.60;;;1.50;;
11338;SDS011;5724;42.684;23.252;2023-02-21T12:43:54;1.60;;;1.50;;
11338;SDS011;5724;42.684;23.252;2023-02-21T12:46:44;4.18;;;1.38;;
11338;SDS011;5724;42.684;23.252;2023-02-21T12:57:49;2.85;;;1.52;;
11338;SDS011;5724;42.684;23.252;2023-02-21T13:02:53;2.10;;;1.95;;
11338;SDS011;5724;42.684;23.252;2023-02-21T13:05:25;2.72;;;1.60;;
11338;SDS011;5724;42.684;23.252;2023-02-21T13:08:18;1.85;;;1.20;;
11338;SDS011;5724;42.684;23.252;2023-02-21T13:10:52;1.70;;;1.60;;
11338;SDS011;5724;42.684;23.252;2023-02-21T13:13:26;2.00;;;1.45;;
11338;SDS011;5724;42.684;23.252;2023-02-21T13:15:56;1.30;;;1.20;;
11338;SDS011;5724;42.684;23.252;2023-02-21T13:20:59;2.55;;;1.50;;
11338;SDS011;5724;42.684;23.252;2023-02-21T13:23:48;1.42;;;1.33;;
11338;SDS011;5724;42.684;23.252;2023-02-21T13:26:50;2.15;;;1.30;;
11338;SDS011;5724;42.684;23.252;2023-02-21T13:29:30;1.98;;;1.70;;
11338;SDS011;5724;42.684;23.252;2023-02-21T13:31:59;3.25;;;1.33;;
11338;SDS011;5724;42.684;23.252;2023-02-21T13:34:28;1.60;;;1.50;;
11338;SDS011;5724;42.684;23.252;2023-02-21T13:36:59;2.35;;;1.60;;
11338;SDS011;5724;42.684;23.252;2023-02-21T13:39:28;1.55;;;1.20;;
11338;SDS011;5724;42.684;23.252;2023-02-21T13:44:44;3.95;;;2.05;;
11338;SDS011;5724;42.684;23.252;2023-02-21T13:47:13;1.70;;;1.60;;
11338;SDS011;5724;42.684;23.252;2023-02-21T13:57:46;0.98;;;0.98;;
11338;SDS011;5724;42.684;23.252;2023-02-21T14:02:58;2.05;;;0.98;;
11338;SDS011;5724;42.684;23.252;2023-02-21T14:08:13;1.83;;;0.70;;
11338;SDS011;5724;42.684;23.252;2023-02-21T14:11:11;0.82;;;0.82;;
11338;SDS011;5724;42.684;23.252;2023-02-21T14:13:40;4.25;;;1.02;;
11338;SDS011;5724;42.684;23.252;2023-02-21T14:18:48;1.88;;;1.40;;
11338;SDS011;5724;42.684;23.252;2023-02-21T14:21:23;4.32;;;1.67;;
11338;SDS011;5724;42.684;23.252;2023-02-21T14:31:50;4.15;;;2.17;;
11338;SDS011;5724;42.684;23.252;2023-02-21T14:34:31;1.65;;;1.55;;
11338;SDS011;5724;42.684;23.252;2023-02-21T14:37:00;2.15;;;1.40;;
11338;SDS011;5724;42.684;23.252;2023-02-21T14:39:35;6.75;;;6.25;;
11338;SDS011;5724;42.684;23.252;2023-02-21T14:47:23;3.00;;;1.60;;
11338;SDS011;5724;42.684;23.252;2023-02-21T14:50:02;2.65;;;1.42;;
11338;SDS011;5724;42.684;23.252;2023-02-21T14:58:26;2.13;;;1.30;;
11338;SDS011;5724;42.684;23.252;2023-02-21T15:03:45;3.95;;;1.30;;
11338;SDS011;5724;42.684;23.252;2023-02-21T15:06:19;1.38;;;1.27;;
11338;SDS011;5724;42.684;23.252;2023-02-21T15:08:50;5.95;;;3.97;;
11338;SDS011;5724;42.684;23.252;2023-02-21T15:11:21;2.33;;;2.13;;
11338;SDS011;5724;42.684;23.252;2023-02-21T15:22:05;1.60;;;1.50;;
11338;SDS011;5724;42.684;23.252;2023-02-21T15:27:30;1.60;;;1.50;;
11338;SDS011;5724;42.684;23.252;2023-02-21T15:32:58;2.05;;;1.70;;
11338;SDS011;5724;42.684;23.252;2023-02-21T15:35:31;3.70;;;1.52;;
11338;SDS011;5724;42.684;23.252;2023-02-21T15:38:01;1.98;;;1.70;;
11338;SDS011;5724;42.684;23.252;2023-02-21T15:40:29;1.80;;;1.65;;
11338;SDS011;5724;42.684;23.252;2023-02-21T15:42:55;3.10;;;2.17;;
11338;SDS011;5724;42.684;23.252;2023-02-21T15:45:23;5.90;;;3.00;;
11338;SDS011;5724;42.684;23.252;2023-02-21T15:47:56;2.92;;;2.72;;
11338;SDS011;5724;42.684;23.252;2023-02-21T15:53:15;4.10;;;3.33;;
11338;SDS011;5724;42.684;23.252;2023-02-21T15:55:41;5.53;;;3.83;;
11338;SDS011;5724;42.684;23.252;2023-02-21T16:00:43;5.13;;;4.68;;
11338;SDS011;5724;42.684;23.252;2023-02-21T16:08:57;10.43;;;7.90;;
11338;SDS011;5724;42.684;23.252;2023-02-21T16:11:36;3.72;;;3.42;;
11338;SDS011;5724;42.684;23.252;2023-02-21T16:14:03;4.95;;;3.30;;
11338;SDS011;5724;42.684;23.252;2023-02-21T16:16:32;8.95;;;3.42;;
11338;SDS011;5724;42.684;23.252;2023-02-21T16:19:01;2.83;;;2.63;;
11338;SDS011;5724;42.684;23.252;2023-02-21T16:21:27;2.60;;;2.40;;
11338;SDS011;5724;42.684;23.252;2023-02-21T16:23:53;5.70;;;3.20;;
11338;SDS011;5724;42.684;23.252;2023-02-21T16:26:24;3.75;;;3.53;;
11338;SDS011;5724;42.684;23.252;2023-02-21T16:28:52;3.83;;;3.63;;
11338;SDS011;5724;42.684;23.252;2023-02-21T16:31:28;5.13;;;4.30;;
11338;SDS011;5724;42.684;23.252;2023-02-21T16:33:55;7.53;;;6.22;;
11338;SDS011;5724;42.684;23.252;2023-02-21T16:36:25;5.00;;;3.63;;
11338;SDS011;5724;42.684;23.252;2023-02-21T16:38:53;4.53;;;2.55;;
11338;SDS011;5724;42.684;23.252;2023-02-21T16:41:20;5.15;;;4.65;;
11338;SDS011;5724;42.684;23.252;2023-02-21T16:43:45;4.97;;;3.53;;
11338;SDS011;5724;42.684;23.252;2023-02-21T16:46:11;3.60;;;3.40;;
11338;SDS011;5724;42.684;23.252;2023-02-21T16:48:37;4.53;;;3.72;;
11338;SDS011;5724;42.684;23.252;2023-02-21T16:51:03;4.13;;;3.83;;
11338;SDS011;5724;42.684;23.252;2023-02-21T16:53:32;4.38;;;3.97;;
11338;SDS011;5724;42.684;23.252;2023-02-21T16:55:58;4.53;;;3.33;;
11338;SDS011;5724;42.684;23.252;2023-02-21T16:58:37;3.70;;;3.40;;
11338;SDS011;5724;42.684;23.252;2023-02-21T17:01:19;5.30;;;4.90;;
11338;SDS011;5724;42.684;23.252;2023-02-21T17:03:53;8.48;;;5.70;;
11338;SDS011;5724;42.684;23.252;2023-02-21T17:06:19;7.35;;;6.57;;
11338;SDS011;5724;42.684;23.252;2023-02-21T17:08:47;7.72;;;4.75;;
11338;SDS011;5724;42.684;23.252;2023-02-21T17:11:12;5.18;;;4.75;;
11338;SDS011;5724;42.684;23.252;2023-02-21T17:13:38;5.28;;;4.40;;
11338;SDS011;5724;42.684;23.252;2023-02-21T17:16:04;4.78;;;4.28;;
11338;SDS011;5724;42.684;23.252;2023-02-21T17:18:30;5.05;;;4.38;;
11338;SDS011;5724;42.684;23.252;2023-02-21T17:20:56;4.22;;;3.20;;
11338;SDS011;5724;42.684;23.252;2023-02-21T17:23:22;6.22;;;4.60;;
11338;SDS011;5724;42.684;23.252;2023-02-21T17:25:47;5.05;;;3.35;;
11338;SDS011;5724;42.684;23.252;2023-02-21T17:28:13;6.28;;;5.68;;
11338;SDS011;5724;42.684;23.252;2023-02-21T17:30:38;4.38;;;4.07;;
11338;SDS011;5724;42.684;23.252;2023-02-21T17:33:04;3.20;;;2.88;;
11338;SDS011;5724;42.684;23.252;2023-02-21T17:35:29;4.55;;;3.85;;
11338;SDS011;5724;42.684;23.252;2023-02-21T17:37:56;3.28;;;3.00;;
11338;SDS011;5724;42.684;23.252;2023-02-21T17:40:25;4.03;;;3.65;;
11338;SDS011;5724;42.684;23.252;2023-02-21T17:42:51;2.92;;;2.55;;
11338;SDS011;5724;42.684;23.252;2023-02-21T17:45:17;4.22;;;3.85;;
11338;SDS011;5724;42.684;23.252;2023-02-21T17:47:44;3.35;;;3.05;;
11338;SDS011;5724;42.684;23.252;2023-02-21T17:50:09;5.88;;;3.78;;
11338;SDS011;5724;42.684;23.252;2023-02-21T17:52:35;3.72;;;3.53;;
11338;SDS011;5724;42.684;23.252;2023-02-21T17:55:00;3.72;;;2.85;;